sensor_id;sensor_type;location;lat;lon;timestamp;P1;durP1;ratioP1;P2;durP2;ratioP2
846;SDS011;410;48.954;9.474;2024-03-17T00:01:31;27.23;;;8.13;;
846;SDS011;410;48.954;9.474;2024-03-17T00:03:32;24.63;;;8.73;;
846;SDS011;410;48.954;9.474;2024-03-17T00:05:36;15.50;;;8.17;;
846;SDS011;410;48.954;9.474;2024-03-17T00:07:38;25.33;;;8.23;;
846;SDS011;410;48.954;9.474;2024-03-17T00:09:40;19.57;;;7.57;;
846;SDS011;410;48.954;9.474;2024-03-17T00:11:43;25.83;;;6.60;;
846;SDS011;410;48.954;9.474;2024-03-17T00:13:45;21.00;;;7.63;;
846;SDS011;410;48.954;9.474;2024-03-17T00:15:48;22.40;;;7.50;;
846;SDS011;410;48.954;9.474;2024-03-17T00:17:50;20.80;;;7.67;;
846;SDS011;410;48.954;9.474;2024-03-17T00:19:51;20.83;;;6.97;;
846;SDS011;410;48.954;9.474;2024-03-17T00:21:55;11.83;;;5.30;;
846;SDS011;410;48.954;9.474;2024-03-17T00:23:56;20.30;;;5.47;;
846;SDS011;410;48.954;9.474;2024-03-17T00:25:58;24.53;;;6.60;;
846;SDS011;410;48.954;9.474;2024-03-17T00:28:00;23.00;;;5.93;;
846;SDS011;410;48.954;9.474;2024-03-17T00:30:03;13.33;;;5.10;;
846;SDS011;410;48.954;9.474;2024-03-17T00:32:09;14.93;;;6.17;;
846;SDS011;410;48.954;9.474;2024-03-17T00:34:12;23.03;;;5.17;;
846;SDS011;410;48.954;9.474;2024-03-17T00:36:14;23.10;;;5.27;;
846;SDS011;410;48.954;9.474;2024-03-17T00:38:17;36.20;;;6.53;;
846;SDS011;410;48.954;9.474;2024-03-17T00:40:19;22.87;;;6.20;;
846;SDS011;410;48.954;9.474;2024-03-17T00:42:21;24.27;;;5.97;;
846;SDS011;410;48.954;9.474;2024-03-17T00:44:23;25.10;;;6.20;;
846;SDS011;410;48.954;9.474;2024-03-17T00:46:26;39.50;;;6.77;;
846;SDS011;410;48.954;9.474;2024-03-17T00:48:27;53.77;;;7.63;;
846;SDS011;410;48.954;9.474;2024-03-17T00:50:29;26.17;;;6.80;;
846;SDS011;410;48.954;9.474;2024-03-17T00:52:31;46.57;;;6.80;;
846;SDS011;410;48.954;9.474;2024-03-17T00:54:37;60.73;;;7.20;;
846;SDS011;410;48.954;9.474;2024-03-17T00:56:40;42.87;;;7.43;;
846;SDS011;410;48.954;9.474;2024-03-17T00:58:42;25.40;;;6.20;;
846;SDS011;410;48.954;9.474;2024-03-17T01:00:45;14.57;;;5.60;;
846;SDS011;410;48.954;9.474;2024-03-17T01:02:48;23.97;;;6.33;;
846;SDS011;410;48.954;9.474;2024-03-17T01:04:49;19.07;;;6.03;;
846;SDS011;410;48.954;9.474;2024-03-17T01:06:52;17.90;;;6.40;;
846;SDS011;410;48.954;9.474;2024-03-17T01:08:53;9.07;;;5.30;;
846;SDS011;410;48.954;9.474;2024-03-17T01:10:57;13.00;;;5.87;;
846;SDS011;410;48.954;9.474;2024-03-17T01:12:59;10.53;;;5.80;;
846;SDS011;410;48.954;9.474;2024-03-17T01:15:03;15.10;;;6.20;;
846;SDS011;410;48.954;9.474;2024-03-17T01:17:05;16.97;;;6.03;;
846;SDS011;410;48.954;9.474;2024-03-17T01:19:07;15.85;;;6.35;;
846;SDS011;410;48.954;9.474;2024-03-17T01:21:08;15.70;;;5.60;;
846;SDS011;410;48.954;9.474;2024-03-17T01:23:11;18.13;;;6.03;;
846;SDS011;410;48.954;9.474;2024-03-17T01:25:12;15.48;;;5.85;;
846;SDS011;410;48.954;9.474;2024-03-17T01:27:18;14.85;;;5.75;;
846;SDS011;410;48.954;9.474;2024-03-17T01:29:20;13.68;;;5.07;;
846;SDS011;410;48.954;9.474;2024-03-17T01:31:22;11.27;;;5.70;;
846;SDS011;410;48.954;9.474;2024-03-17T01:33:23;14.10;;;5.40;;
846;SDS011;410;48.954;9.474;2024-03-17T01:35:26;16.30;;;5.20;;
846;SDS011;410;48.954;9.474;2024-03-17T01:37:27;13.93;;;4.63;;
846;SDS011;410;48.954;9.474;2024-03-17T01:39:32;10.90;;;5.80;;
846;SDS011;410;48.954;9.474;2024-03-17T01:41:34;19.77;;;5.30;;
846;SDS011;410;48.954;9.474;2024-03-17T01:43:37;16.03;;;5.03;;
846;SDS011;410;48.954;9.474;2024-03-17T01:45:39;11.23;;;5.35;;
846;SDS011;410;48.954;9.474;2024-03-17T01:47:41;12.90;;;5.90;;
846;SDS011;410;48.954;9.474;2024-03-17T01:49:43;12.35;;;5.10;;
846;SDS011;410;48.954;9.474;2024-03-17T01:51:45;9.48;;;5.35;;
846;SDS011;410;48.954;9.474;2024-03-17T01:53:47;10.75;;;5.07;;
846;SDS011;410;48.954;9.474;2024-03-17T01:55:50;19.67;;;5.32;;
846;SDS011;410;48.954;9.474;2024-03-17T01:57:51;11.57;;;4.75;;
846;SDS011;410;48.954;9.474;2024-03-17T01:59:55;15.95;;;4.40;;
846;SDS011;410;48.954;9.474;2024-03-17T02:01:56;14.65;;;4.60;;
846;SDS011;410;48.954;9.474;2024-03-17T02:03:59;8.90;;;4.15;;
846;SDS011;410;48.954;9.474;2024-03-17T02:06:00;11.68;;;4.32;;
846;SDS011;410;48.954;9.474;2024-03-17T02:08:03;9.05;;;4.55;;
846;SDS011;410;48.954;9.474;2024-03-17T02:10:05;7.10;;;4.32;;
846;SDS011;410;48.954;9.474;2024-03-17T02:12:09;8.60;;;3.92;;
846;SDS011;410;48.954;9.474;2024-03-17T02:14:12;8.48;;;4.15;;
846;SDS011;410;48.954;9.474;2024-03-17T02:16:16;11.30;;;4.93;;
846;SDS011;410;48.954;9.474;2024-03-17T02:18:18;13.30;;;4.25;;
846;SDS011;410;48.954;9.474;2024-03-17T02:20:20;7.32;;;3.70;;
846;SDS011;410;48.954;9.474;2024-03-17T02:22:27;12.77;;;3.72;;
846;SDS011;410;48.954;9.474;2024-03-17T02:24:30;19.30;;;4.53;;
846;SDS011;410;48.954;9.474;2024-03-17T02:26:32;8.85;;;4.13;;
846;SDS011;410;48.954;9.474;2024-03-17T02:28:38;16.33;;;3.90;;
846;SDS011;410;48.954;9.474;2024-03-17T02:30:40;6.93;;;4.03;;
846;SDS011;410;48.954;9.474;2024-03-17T02:32:42;9.27;;;4.30;;
846;SDS011;410;48.954;9.474;2024-03-17T02:34:44;10.45;;;4.38;;
846;SDS011;410;48.954;9.474;2024-03-17T02:36:46;9.60;;;4.20;;
846;SDS011;410;48.954;9.474;2024-03-17T02:38:49;5.32;;;3.65;;
846;SDS011;410;48.954;9.474;2024-03-17T02:41:09;9.00;;;4.07;;
846;SDS011;410;48.954;9.474;2024-03-17T02:43:11;7.35;;;4.10;;
846;SDS011;410;48.954;9.474;2024-03-17T02:45:13;7.28;;;4.32;;
846;SDS011;410;48.954;9.474;2024-03-17T02:47:17;8.48;;;4.45;;
846;SDS011;410;48.954;9.474;2024-03-17T02:49:20;7.20;;;4.00;;
846;SDS011;410;48.954;9.474;2024-03-17T02:51:21;6.85;;;3.60;;
846;SDS011;410;48.954;9.474;2024-03-17T02:53:25;8.82;;;3.95;;
846;SDS011;410;48.954;9.474;2024-03-17T02:55:28;7.97;;;3.70;;
846;SDS011;410;48.954;9.474;2024-03-17T02:57:31;8.65;;;3.67;;
846;SDS011;410;48.954;9.474;2024-03-17T02:59:33;8.50;;;3.80;;
846;SDS011;410;48.954;9.474;2024-03-17T03:01:35;14.68;;;4.43;;
846;SDS011;410;48.954;9.474;2024-03-17T03:03:37;9.27;;;3.90;;
846;SDS011;410;48.954;9.474;2024-03-17T03:05:40;9.27;;;4.07;;
846;SDS011;410;48.954;9.474;2024-03-17T03:07:42;8.38;;;4.40;;
846;SDS011;410;48.954;9.474;2024-03-17T03:09:45;18.52;;;3.80;;
846;SDS011;410;48.954;9.474;2024-03-17T03:11:50;16.20;;;4.50;;
846;SDS011;410;48.954;9.474;2024-03-17T03:13:52;7.97;;;3.97;;
846;SDS011;410;48.954;9.474;2024-03-17T03:15:54;10.50;;;3.88;;
846;SDS011;410;48.954;9.474;2024-03-17T03:17:57;9.32;;;4.20;;
846;SDS011;410;48.954;9.474;2024-03-17T03:20:00;9.65;;;4.20;;
846;SDS011;410;48.954;9.474;2024-03-17T03:22:02;19.85;;;4.32;;
846;SDS011;410;48.954;9.474;2024-03-17T03:24:04;19.58;;;4.45;;
846;SDS011;410;48.954;9.474;2024-03-17T03:26:07;8.88;;;4.18;;
846;SDS011;410;48.954;9.474;2024-03-17T03:28:12;20.38;;;4.55;;
846;SDS011;410;48.954;9.474;2024-03-17T03:30:14;19.73;;;4.32;;
846;SDS011;410;48.954;9.474;2024-03-17T03:32:17;21.15;;;4.95;;
846;SDS011;410;48.954;9.474;2024-03-17T03:34:19;14.88;;;5.03;;
846;SDS011;410;48.954;9.474;2024-03-17T03:36:21;9.60;;;4.40;;
846;SDS011;410;48.954;9.474;2024-03-17T03:38:24;21.70;;;5.40;;
846;SDS011;410;48.954;9.474;2024-03-17T03:40:26;16.02;;;4.82;;
846;SDS011;410;48.954;9.474;2024-03-17T03:42:28;23.98;;;5.20;;
846;SDS011;410;48.954;9.474;2024-03-17T03:44:31;14.65;;;4.78;;
846;SDS011;410;48.954;9.474;2024-03-17T03:46:33;10.88;;;4.35;;
846;SDS011;410;48.954;9.474;2024-03-17T03:48:36;15.38;;;5.38;;
846;SDS011;410;48.954;9.474;2024-03-17T03:50:41;10.57;;;4.30;;
846;SDS011;410;48.954;9.474;2024-03-17T03:52:42;18.27;;;4.75;;
846;SDS011;410;48.954;9.474;2024-03-17T03:54:45;11.80;;;4.55;;
846;SDS011;410;48.954;9.474;2024-03-17T03:56:48;18.85;;;4.60;;
846;SDS011;410;48.954;9.474;2024-03-17T03:58:50;16.17;;;4.45;;
846;SDS011;410;48.954;9.474;2024-03-17T04:00:53;10.32;;;4.10;;
846;SDS011;410;48.954;9.474;2024-03-17T04:02:54;15.73;;;4.00;;
846;SDS011;410;48.954;9.474;2024-03-17T04:04:57;8.80;;;3.60;;
846;SDS011;410;48.954;9.474;2024-03-17T04:06:59;12.55;;;4.05;;
846;SDS011;410;48.954;9.474;2024-03-17T04:09:02;9.73;;;3.80;;
846;SDS011;410;48.954;9.474;2024-03-17T04:11:06;20.95;;;4.45;;
846;SDS011;410;48.954;9.474;2024-03-17T04:13:10;21.98;;;4.70;;
846;SDS011;410;48.954;9.474;2024-03-17T04:15:11;15.82;;;4.00;;
846;SDS011;410;48.954;9.474;2024-03-17T04:17:16;10.52;;;3.80;;
846;SDS011;410;48.954;9.474;2024-03-17T04:19:18;14.52;;;4.32;;
846;SDS011;410;48.954;9.474;2024-03-17T04:21:20;12.30;;;4.53;;
846;SDS011;410;48.954;9.474;2024-03-17T04:23:24;7.18;;;4.22;;
846;SDS011;410;48.954;9.474;2024-03-17T04:25:26;20.55;;;5.95;;
846;SDS011;410;48.954;9.474;2024-03-17T04:27:28;21.92;;;5.28;;
846;SDS011;410;48.954;9.474;2024-03-17T04:29:30;24.45;;;5.18;;
846;SDS011;410;48.954;9.474;2024-03-17T04:31:32;28.50;;;4.85;;
846;SDS011;410;48.954;9.474;2024-03-17T04:33:35;29.17;;;4.93;;
846;SDS011;410;48.954;9.474;2024-03-17T04:35:38;13.65;;;5.22;;
846;SDS011;410;48.954;9.474;2024-03-17T04:37:40;21.23;;;4.50;;
846;SDS011;410;48.954;9.474;2024-03-17T04:39:43;13.25;;;4.32;;
846;SDS011;410;48.954;9.474;2024-03-17T04:41:47;12.90;;;4.35;;
846;SDS011;410;48.954;9.474;2024-03-17T04:43:50;8.85;;;4.63;;
846;SDS011;410;48.954;9.474;2024-03-17T04:45:58;11.63;;;4.13;;
846;SDS011;410;48.954;9.474;2024-03-17T04:48:01;9.10;;;3.80;;
846;SDS011;410;48.954;9.474;2024-03-17T04:50:05;6.18;;;3.92;;
846;SDS011;410;48.954;9.474;2024-03-17T04:52:10;6.82;;;4.40;;
846;SDS011;410;48.954;9.474;2024-03-17T04:54:13;8.10;;;5.77;;
846;SDS011;410;48.954;9.474;2024-03-17T04:56:15;10.23;;;4.47;;
846;SDS011;410;48.954;9.474;2024-03-17T04:58:18;10.75;;;4.55;;
846;SDS011;410;48.954;9.474;2024-03-17T05:00:22;13.73;;;4.50;;
846;SDS011;410;48.954;9.474;2024-03-17T05:02:24;14.32;;;4.80;;
846;SDS011;410;48.954;9.474;2024-03-17T05:04:27;7.35;;;4.85;;
846;SDS011;410;48.954;9.474;2024-03-17T05:06:30;15.30;;;4.75;;
846;SDS011;410;48.954;9.474;2024-03-17T05:08:34;7.60;;;4.30;;
846;SDS011;410;48.954;9.474;2024-03-17T05:10:36;8.45;;;4.40;;
846;SDS011;410;48.954;9.474;2024-03-17T05:12:40;8.95;;;4.85;;
846;SDS011;410;48.954;9.474;2024-03-17T05:14:43;20.10;;;5.20;;
846;SDS011;410;48.954;9.474;2024-03-17T05:16:45;15.10;;;4.75;;
846;SDS011;410;48.954;9.474;2024-03-17T05:18:49;22.63;;;5.33;;
846;SDS011;410;48.954;9.474;2024-03-17T05:20:58;34.58;;;5.00;;
846;SDS011;410;48.954;9.474;2024-03-17T05:23:01;10.02;;;4.25;;
846;SDS011;410;48.954;9.474;2024-03-17T05:25:04;33.47;;;6.30;;
846;SDS011;410;48.954;9.474;2024-03-17T05:27:07;12.63;;;4.50;;
846;SDS011;410;48.954;9.474;2024-03-17T05:29:09;19.30;;;4.50;;
846;SDS011;410;48.954;9.474;2024-03-17T05:31:11;34.42;;;5.70;;
846;SDS011;410;48.954;9.474;2024-03-17T05:33:15;24.40;;;5.25;;
846;SDS011;410;48.954;9.474;2024-03-17T05:35:18;20.83;;;4.45;;
846;SDS011;410;48.954;9.474;2024-03-17T05:37:20;13.23;;;4.10;;
846;SDS011;410;48.954;9.474;2024-03-17T05:39:26;21.35;;;4.40;;
846;SDS011;410;48.954;9.474;2024-03-17T05:41:28;10.80;;;3.97;;
846;SDS011;410;48.954;9.474;2024-03-17T05:43:31;11.82;;;4.03;;
846;SDS011;410;48.954;9.474;2024-03-17T05:45:34;17.10;;;4.45;;
846;SDS011;410;48.954;9.474;2024-03-17T05:47:36;16.50;;;4.70;;
846;SDS011;410;48.954;9.474;2024-03-17T05:49:39;44.08;;;5.15;;
846;SDS011;410;48.954;9.474;2024-03-17T05:51:43;29.58;;;5.28;;
846;SDS011;410;48.954;9.474;2024-03-17T05:53:44;47.30;;;5.88;;
846;SDS011;410;48.954;9.474;2024-03-17T05:55:47;16.40;;;5.15;;
846;SDS011;410;48.954;9.474;2024-03-17T05:57:49;30.92;;;3.80;;
846;SDS011;410;48.954;9.474;2024-03-17T05:59:51;9.95;;;3.42;;
846;SDS011;410;48.954;9.474;2024-03-17T06:01:53;16.02;;;3.65;;
846;SDS011;410;48.954;9.474;2024-03-17T06:03:55;18.90;;;3.90;;
846;SDS011;410;48.954;9.474;2024-03-17T06:05:58;35.05;;;4.75;;
846;SDS011;410;48.954;9.474;2024-03-17T06:08:00;22.20;;;4.50;;
846;SDS011;410;48.954;9.474;2024-03-17T06:10:03;24.25;;;4.03;;
846;SDS011;410;48.954;9.474;2024-03-17T06:12:08;18.00;;;4.10;;
846;SDS011;410;48.954;9.474;2024-03-17T06:14:11;21.90;;;4.30;;
846;SDS011;410;48.954;9.474;2024-03-17T06:16:13;24.35;;;3.70;;
846;SDS011;410;48.954;9.474;2024-03-17T06:18:16;18.45;;;4.00;;
846;SDS011;410;48.954;9.474;2024-03-17T06:20:18;28.98;;;4.90;;
846;SDS011;410;48.954;9.474;2024-03-17T06:22:21;22.52;;;4.07;;
846;SDS011;410;48.954;9.474;2024-03-17T06:24:24;21.02;;;3.70;;
846;SDS011;410;48.954;9.474;2024-03-17T06:26:27;24.67;;;4.85;;
846;SDS011;410;48.954;9.474;2024-03-17T06:28:33;46.78;;;5.47;;
846;SDS011;410;48.954;9.474;2024-03-17T06:30:36;33.35;;;5.05;;
846;SDS011;410;48.954;9.474;2024-03-17T06:32:37;27.65;;;4.82;;
846;SDS011;410;48.954;9.474;2024-03-17T06:34:39;34.50;;;6.65;;
846;SDS011;410;48.954;9.474;2024-03-17T06:36:41;49.55;;;5.65;;
846;SDS011;410;48.954;9.474;2024-03-17T06:38:45;28.20;;;4.70;;
846;SDS011;410;48.954;9.474;2024-03-17T06:40:48;29.88;;;4.65;;
846;SDS011;410;48.954;9.474;2024-03-17T06:42:50;21.10;;;4.90;;
846;SDS011;410;48.954;9.474;2024-03-17T06:44:54;17.92;;;4.30;;
846;SDS011;410;48.954;9.474;2024-03-17T06:46:56;22.77;;;4.45;;
846;SDS011;410;48.954;9.474;2024-03-17T06:48:59;18.38;;;4.22;;
846;SDS011;410;48.954;9.474;2024-03-17T06:51:00;17.58;;;5.10;;
846;SDS011;410;48.954;9.474;2024-03-17T06:53:03;16.23;;;4.55;;
846;SDS011;410;48.954;9.474;2024-03-17T06:55:05;12.25;;;2.70;;
846;SDS011;410;48.954;9.474;2024-03-17T06:57:08;8.95;;;2.58;;
846;SDS011;410;48.954;9.474;2024-03-17T06:59:10;8.05;;;2.50;;
846;SDS011;410;48.954;9.474;2024-03-17T07:01:14;10.43;;;3.40;;
846;SDS011;410;48.954;9.474;2024-03-17T07:03:18;9.82;;;3.63;;
846;SDS011;410;48.954;9.474;2024-03-17T07:05:20;11.23;;;3.55;;
846;SDS011;410;48.954;9.474;2024-03-17T07:07:22;12.85;;;3.85;;
846;SDS011;410;48.954;9.474;2024-03-17T07:09:25;18.80;;;4.35;;
846;SDS011;410;48.954;9.474;2024-03-17T07:11:27;18.15;;;4.55;;
846;SDS011;410;48.954;9.474;2024-03-17T07:13:30;14.57;;;5.00;;
846;SDS011;410;48.954;9.474;2024-03-17T07:15:31;39.90;;;5.95;;
846;SDS011;410;48.954;9.474;2024-03-17T07:17:35;33.00;;;5.07;;
846;SDS011;410;48.954;9.474;2024-03-17T07:19:39;25.43;;;5.10;;
846;SDS011;410;48.954;9.474;2024-03-17T07:21:41;22.13;;;5.30;;
846;SDS011;410;48.954;9.474;2024-03-17T07:23:43;35.50;;;6.00;;
846;SDS011;410;48.954;9.474;2024-03-17T07:25:51;29.40;;;6.72;;
846;SDS011;410;48.954;9.474;2024-03-17T07:27:53;16.08;;;5.72;;
846;SDS011;410;48.954;9.474;2024-03-17T07:29:57;38.67;;;6.78;;
846;SDS011;410;48.954;9.474;2024-03-17T07:31:59;14.07;;;6.70;;
846;SDS011;410;48.954;9.474;2024-03-17T07:34:02;18.73;;;5.93;;
846;SDS011;410;48.954;9.474;2024-03-17T07:36:04;35.78;;;8.25;;
846;SDS011;410;48.954;9.474;2024-03-17T07:38:09;32.03;;;6.65;;
846;SDS011;410;48.954;9.474;2024-03-17T07:40:11;14.13;;;5.68;;
846;SDS011;410;48.954;9.474;2024-03-17T07:42:14;13.95;;;5.25;;
846;SDS011;410;48.954;9.474;2024-03-17T07:44:17;9.13;;;4.70;;
846;SDS011;410;48.954;9.474;2024-03-17T07:46:19;30.95;;;5.88;;
846;SDS011;410;48.954;9.474;2024-03-17T07:48:21;15.70;;;6.15;;
846;SDS011;410;48.954;9.474;2024-03-17T07:50:25;21.80;;;6.47;;
846;SDS011;410;48.954;9.474;2024-03-17T07:52:28;46.43;;;7.63;;
846;SDS011;410;48.954;9.474;2024-03-17T07:54:31;31.83;;;7.25;;
846;SDS011;410;48.954;9.474;2024-03-17T07:56:36;21.60;;;6.37;;
846;SDS011;410;48.954;9.474;2024-03-17T07:58:38;8.57;;;6.70;;
846;SDS011;410;48.954;9.474;2024-03-17T08:00:41;11.40;;;6.80;;
846;SDS011;410;48.954;9.474;2024-03-17T08:02:44;10.30;;;6.17;;
846;SDS011;410;48.954;9.474;2024-03-17T08:04:47;12.90;;;6.80;;
846;SDS011;410;48.954;9.474;2024-03-17T08:06:50;13.13;;;6.43;;
846;SDS011;410;48.954;9.474;2024-03-17T08:08:52;10.50;;;6.23;;
846;SDS011;410;48.954;9.474;2024-03-17T08:10:56;10.57;;;5.80;;
846;SDS011;410;48.954;9.474;2024-03-17T08:12:58;8.17;;;6.10;;
846;SDS011;410;48.954;9.474;2024-03-17T08:14:59;8.43;;;6.30;;
846;SDS011;410;48.954;9.474;2024-03-17T08:17:02;7.70;;;5.57;;
846;SDS011;410;48.954;9.474;2024-03-17T08:19:08;6.10;;;4.93;;
846;SDS011;410;48.954;9.474;2024-03-17T08:21:10;7.50;;;5.00;;
846;SDS011;410;48.954;9.474;2024-03-17T08:23:14;6.73;;;5.60;;
846;SDS011;410;48.954;9.474;2024-03-17T08:25:17;8.60;;;5.73;;
846;SDS011;410;48.954;9.474;2024-03-17T08:27:19;7.40;;;5.87;;
846;SDS011;410;48.954;9.474;2024-03-17T08:29:23;8.57;;;5.80;;
846;SDS011;410;48.954;9.474;2024-03-17T08:31:25;6.37;;;5.43;;
846;SDS011;410;48.954;9.474;2024-03-17T08:33:28;7.10;;;5.97;;
846;SDS011;410;48.954;9.474;2024-03-17T08:35:30;8.57;;;5.60;;
846;SDS011;410;48.954;9.474;2024-03-17T08:37:32;6.10;;;5.20;;
846;SDS011;410;48.954;9.474;2024-03-17T08:39:35;7.40;;;6.27;;
846;SDS011;410;48.954;9.474;2024-03-17T08:41:37;9.33;;;6.73;;
846;SDS011;410;48.954;9.474;2024-03-17T08:43:40;8.40;;;6.77;;
846;SDS011;410;48.954;9.474;2024-03-17T08:45:53;9.50;;;6.73;;
846;SDS011;410;48.954;9.474;2024-03-17T08:47:56;8.50;;;6.60;;
846;SDS011;410;48.954;9.474;2024-03-17T08:49:58;9.20;;;6.80;;
846;SDS011;410;48.954;9.474;2024-03-17T08:52:04;8.43;;;6.37;;
846;SDS011;410;48.954;9.474;2024-03-17T08:54:06;8.03;;;6.10;;
846;SDS011;410;48.954;9.474;2024-03-17T08:56:10;8.40;;;7.10;;
846;SDS011;410;48.954;9.474;2024-03-17T08:58:12;9.80;;;6.70;;
846;SDS011;410;48.954;9.474;2024-03-17T09:00:14;8.33;;;6.90;;
846;SDS011;410;48.954;9.474;2024-03-17T09:02:17;10.43;;;7.87;;
846;SDS011;410;48.954;9.474;2024-03-17T09:04:21;10.83;;;8.37;;
846;SDS011;410;48.954;9.474;2024-03-17T09:06:23;9.23;;;7.93;;
846;SDS011;410;48.954;9.474;2024-03-17T09:08:30;10.17;;;8.10;;
846;SDS011;410;48.954;9.474;2024-03-17T09:10:38;11.80;;;9.07;;
846;SDS011;410;48.954;9.474;2024-03-17T09:12:49;11.00;;;9.10;;
846;SDS011;410;48.954;9.474;2024-03-17T09:14:52;14.10;;;10.00;;
846;SDS011;410;48.954;9.474;2024-03-17T09:16:54;12.33;;;10.20;;
846;SDS011;410;48.954;9.474;2024-03-17T09:18:59;10.97;;;9.30;;
846;SDS011;410;48.954;9.474;2024-03-17T09:21:01;12.30;;;9.40;;
846;SDS011;410;48.954;9.474;2024-03-17T09:23:04;12.33;;;9.43;;
846;SDS011;410;48.954;9.474;2024-03-17T09:25:07;11.83;;;8.60;;
846;SDS011;410;48.954;9.474;2024-03-17T09:27:09;10.93;;;9.33;;
846;SDS011;410;48.954;9.474;2024-03-17T09:29:13;13.63;;;10.90;;
846;SDS011;410;48.954;9.474;2024-03-17T09:31:16;9.82;;;8.70;;
846;SDS011;410;48.954;9.474;2024-03-17T09:33:18;12.50;;;10.60;;
846;SDS011;410;48.954;9.474;2024-03-17T09:35:21;10.20;;;8.90;;
846;SDS011;410;48.954;9.474;2024-03-17T09:37:23;10.70;;;9.27;;
846;SDS011;410;48.954;9.474;2024-03-17T09:39:25;10.37;;;9.30;;
846;SDS011;410;48.954;9.474;2024-03-17T09:41:28;10.40;;;9.33;;
846;SDS011;410;48.954;9.474;2024-03-17T09:43:31;11.10;;;9.70;;
846;SDS011;410;48.954;9.474;2024-03-17T09:45:35;10.70;;;9.67;;
846;SDS011;410;48.954;9.474;2024-03-17T09:47:38;13.77;;;9.40;;
846;SDS011;410;48.954;9.474;2024-03-17T09:49:41;9.90;;;8.17;;
846;SDS011;410;48.954;9.474;2024-03-17T09:51:44;12.33;;;10.47;;
846;SDS011;410;48.954;9.474;2024-03-17T09:53:46;12.40;;;10.30;;
846;SDS011;410;48.954;9.474;2024-03-17T09:55:48;10.50;;;8.10;;
846;SDS011;410;48.954;9.474;2024-03-17T09:57:50;9.30;;;7.70;;
846;SDS011;410;48.954;9.474;2024-03-17T09:59:52;9.20;;;7.83;;
846;SDS011;410;48.954;9.474;2024-03-17T10:01:57;7.73;;;6.60;;
846;SDS011;410;48.954;9.474;2024-03-17T10:03:58;8.23;;;6.33;;
846;SDS011;410;48.954;9.474;2024-03-17T10:06:04;6.60;;;5.90;;
846;SDS011;410;48.954;9.474;2024-03-17T10:08:06;8.37;;;6.40;;
846;SDS011;410;48.954;9.474;2024-03-17T10:10:11;7.80;;;6.60;;
846;SDS011;410;48.954;9.474;2024-03-17T10:12:26;8.63;;;6.40;;
846;SDS011;410;48.954;9.474;2024-03-17T10:14:29;8.30;;;7.20;;
846;SDS011;410;48.954;9.474;2024-03-17T10:16:32;8.60;;;6.67;;
846;SDS011;410;48.954;9.474;2024-03-17T10:18:36;8.43;;;7.63;;
846;SDS011;410;48.954;9.474;2024-03-17T10:20:39;6.60;;;5.80;;
846;SDS011;410;48.954;9.474;2024-03-17T10:22:40;9.57;;;6.50;;
846;SDS011;410;48.954;9.474;2024-03-17T10:24:43;8.37;;;6.60;;
846;SDS011;410;48.954;9.474;2024-03-17T10:26:46;7.37;;;6.40;;
846;SDS011;410;48.954;9.474;2024-03-17T10:28:51;6.80;;;5.27;;
846;SDS011;410;48.954;9.474;2024-03-17T10:30:57;8.17;;;5.97;;
846;SDS011;410;48.954;9.474;2024-03-17T10:33:00;8.03;;;5.93;;
846;SDS011;410;48.954;9.474;2024-03-17T10:35:05;8.70;;;5.53;;
846;SDS011;410;48.954;9.474;2024-03-17T10:37:27;5.60;;;5.00;;
846;SDS011;410;48.954;9.474;2024-03-17T10:39:29;7.30;;;5.00;;
846;SDS011;410;48.954;9.474;2024-03-17T10:41:30;7.60;;;5.33;;
846;SDS011;410;48.954;9.474;2024-03-17T10:43:34;8.20;;;5.90;;
846;SDS011;410;48.954;9.474;2024-03-17T10:45:38;7.07;;;5.00;;
846;SDS011;410;48.954;9.474;2024-03-17T10:47:42;8.10;;;5.60;;
846;SDS011;410;48.954;9.474;2024-03-17T10:49:47;6.50;;;5.13;;
846;SDS011;410;48.954;9.474;2024-03-17T10:51:53;6.97;;;5.30;;
846;SDS011;410;48.954;9.474;2024-03-17T10:53:59;7.20;;;5.57;;
846;SDS011;410;48.954;9.474;2024-03-17T10:56:04;8.83;;;5.80;;
846;SDS011;410;48.954;9.474;2024-03-17T10:58:13;7.23;;;5.40;;
846;SDS011;410;48.954;9.474;2024-03-17T11:00:23;5.90;;;4.80;;
846;SDS011;410;48.954;9.474;2024-03-17T11:02:26;5.57;;;5.00;;
846;SDS011;410;48.954;9.474;2024-03-17T11:04:29;7.07;;;5.47;;
846;SDS011;410;48.954;9.474;2024-03-17T11:06:32;6.20;;;5.40;;
846;SDS011;410;48.954;9.474;2024-03-17T11:08:36;6.03;;;5.43;;
846;SDS011;410;48.954;9.474;2024-03-17T11:10:38;6.60;;;5.87;;
846;SDS011;410;48.954;9.474;2024-03-17T11:12:43;6.03;;;5.20;;
846;SDS011;410;48.954;9.474;2024-03-17T11:14:47;8.00;;;5.60;;
846;SDS011;410;48.954;9.474;2024-03-17T11:16:50;7.27;;;5.50;;
846;SDS011;410;48.954;9.474;2024-03-17T11:18:54;6.90;;;5.40;;
846;SDS011;410;48.954;9.474;2024-03-17T11:21:07;6.30;;;5.53;;
846;SDS011;410;48.954;9.474;2024-03-17T11:23:25;7.70;;;5.50;;
846;SDS011;410;48.954;9.474;2024-03-17T11:25:37;5.80;;;5.20;;
846;SDS011;410;48.954;9.474;2024-03-17T11:27:41;7.63;;;5.13;;
846;SDS011;410;48.954;9.474;2024-03-17T11:29:43;6.27;;;4.70;;
846;SDS011;410;48.954;9.474;2024-03-17T11:31:45;7.70;;;5.20;;
846;SDS011;410;48.954;9.474;2024-03-17T11:33:52;5.80;;;5.10;;
846;SDS011;410;48.954;9.474;2024-03-17T11:40:55;6.20;;;4.87;;
846;SDS011;410;48.954;9.474;2024-03-17T11:43:32;7.23;;;5.20;;
846;SDS011;410;48.954;9.474;2024-03-17T11:45:35;6.50;;;4.30;;
846;SDS011;410;48.954;9.474;2024-03-17T11:47:39;6.13;;;4.80;;
846;SDS011;410;48.954;9.474;2024-03-17T11:49:41;5.30;;;4.77;;
846;SDS011;410;48.954;9.474;2024-03-17T11:51:44;6.10;;;4.60;;
846;SDS011;410;48.954;9.474;2024-03-17T11:53:57;6.60;;;4.50;;
846;SDS011;410;48.954;9.474;2024-03-17T11:56:01;6.33;;;4.20;;
846;SDS011;410;48.954;9.474;2024-03-17T11:58:08;5.23;;;4.33;;
846;SDS011;410;48.954;9.474;2024-03-17T12:00:18;5.87;;;4.23;;
846;SDS011;410;48.954;9.474;2024-03-17T12:02:21;6.77;;;4.80;;
846;SDS011;410;48.954;9.474;2024-03-17T12:04:25;6.40;;;5.50;;
846;SDS011;410;48.954;9.474;2024-03-17T12:06:28;6.70;;;3.93;;
846;SDS011;410;48.954;9.474;2024-03-17T12:08:30;8.03;;;4.60;;
846;SDS011;410;48.954;9.474;2024-03-17T12:10:33;5.30;;;4.10;;
846;SDS011;410;48.954;9.474;2024-03-17T12:12:37;6.80;;;4.50;;
846;SDS011;410;48.954;9.474;2024-03-17T12:14:39;7.70;;;4.10;;
846;SDS011;410;48.954;9.474;2024-03-17T12:16:47;7.03;;;4.50;;
846;SDS011;410;48.954;9.474;2024-03-17T12:18:50;5.17;;;4.20;;
846;SDS011;410;48.954;9.474;2024-03-17T12:20:52;5.20;;;4.10;;
846;SDS011;410;48.954;9.474;2024-03-17T12:22:54;4.77;;;3.90;;
846;SDS011;410;48.954;9.474;2024-03-17T12:24:57;5.40;;;3.40;;
846;SDS011;410;48.954;9.474;2024-03-17T12:27:01;5.80;;;4.10;;
846;SDS011;410;48.954;9.474;2024-03-17T12:29:22;4.70;;;3.77;;
846;SDS011;410;48.954;9.474;2024-03-17T12:31:24;6.03;;;3.90;;
846;SDS011;410;48.954;9.474;2024-03-17T12:33:26;4.80;;;3.60;;
846;SDS011;410;48.954;9.474;2024-03-17T12:35:28;5.60;;;3.50;;
846;SDS011;410;48.954;9.474;2024-03-17T12:37:30;6.03;;;3.70;;
846;SDS011;410;48.954;9.474;2024-03-17T12:39:34;5.83;;;2.90;;
846;SDS011;410;48.954;9.474;2024-03-17T12:41:40;5.67;;;3.60;;
846;SDS011;410;48.954;9.474;2024-03-17T12:43:47;4.60;;;3.30;;
846;SDS011;410;48.954;9.474;2024-03-17T12:45:51;4.97;;;4.07;;
846;SDS011;410;48.954;9.474;2024-03-17T12:47:56;7.37;;;3.87;;
846;SDS011;410;48.954;9.474;2024-03-17T12:49:59;5.10;;;3.60;;
846;SDS011;410;48.954;9.474;2024-03-17T12:52:02;10.03;;;4.17;;
846;SDS011;410;48.954;9.474;2024-03-17T12:54:13;5.00;;;3.97;;
846;SDS011;410;48.954;9.474;2024-03-17T12:56:22;4.57;;;3.50;;
846;SDS011;410;48.954;9.474;2024-03-17T12:58:42;6.70;;;4.40;;
846;SDS011;410;48.954;9.474;2024-03-17T13:01:03;6.53;;;3.83;;
846;SDS011;410;48.954;9.474;2024-03-17T13:03:07;5.53;;;3.70;;
846;SDS011;410;48.954;9.474;2024-03-17T13:05:15;5.53;;;3.63;;
846;SDS011;410;48.954;9.474;2024-03-17T13:07:19;4.73;;;3.47;;
846;SDS011;410;48.954;9.474;2024-03-17T13:09:21;6.33;;;4.07;;
846;SDS011;410;48.954;9.474;2024-03-17T13:11:24;4.50;;;3.73;;